createdAt,value
2018-09-25T00:00:08.501Z,99.99
2018-09-25T00:01:08.477Z,99.99
2018-09-25T00:02:08.451Z,99.99
2018-09-25T00:03:08.427Z,99.99
2018-09-25T00:04:08.403Z,99.99
2018-09-25T00:05:08.380Z,99.99
2018-09-25T00:06:08.357Z,99.99
2018-09-25T00:07:08.330Z,99.99
2018-09-25T00:08:08.306Z,99.99
2018-09-25T00:09:08.281Z,99.99
2018-09-25T00:10:08.263Z,99.99
2018-09-25T00:11:08.232Z,99.99
2018-09-25T00:12:08.208Z,99.99
2018-09-25T00:13:08.184Z,99.99
2018-09-25T00:14:08.160Z,99.99
2018-09-25T00:15:08.135Z,99.99
2018-09-25T00:16:08.111Z,99.99
2018-09-25T00:17:08.086Z,99.99
2018-09-25T00:18:08.061Z,99.99
2018-09-25T00:19:08.038Z,99.99
2018-09-25T00:20:08.013Z,99.99
2018-09-25T00:21:07.989Z,99.99
2018-09-25T00:22:07.964Z,99.99
2018-09-25T00:23:07.939Z,99.99
2018-09-25T00:24:07.916Z,99.99
2018-09-25T00:25:07.890Z,99.99
2018-09-25T00:26:07.865Z,99.99
2018-09-25T00:27:07.842Z,99.99
2018-09-25T00:28:07.818Z,99.99
2018-09-25T00:29:07.793Z,99.99
2018-09-25T00:30:07.768Z,99.99
2018-09-25T00:31:07.743Z,99.99
2018-09-25T00:32:07.719Z,99.99
2018-09-25T00:33:07.694Z,99.99
2018-09-25T00:34:07.668Z,99.99
2018-09-25T00:35:07.645Z,99.99
2018-09-25T00:36:07.621Z,99.99
2018-09-25T00:37:07.596Z,99.99
2018-09-25T00:38:07.570Z,99.99
2018-09-25T00:39:07.546Z,99.99
2018-09-25T00:40:07.522Z,99.99
2018-09-25T00:41:07.497Z,99.99
2018-09-25T00:42:07.472Z,99.99
2018-09-25T00:43:07.479Z,99.99
2018-09-25T00:44:07.423Z,99.99
2018-09-25T00:45:07.400Z,99.99
2018-09-25T00:46:07.373Z,99.99
2018-09-25T00:47:07.379Z,99.99
2018-09-25T00:48:07.327Z,99.99
2018-09-25T00:49:07.300Z,99.99
2018-09-25T00:50:07.275Z,99.99
2018-09-25T00:51:07.250Z,99.99
2018-09-25T00:52:07.226Z,99.99
2018-09-25T00:53:07.201Z,99.99
2018-09-25T00:54:07.178Z,99.99
2018-09-25T00:55:07.151Z,99.99
2018-09-25T00:56:07.127Z,99.99
2018-09-25T00:57:09.453Z,99.99
2018-09-25T00:58:07.077Z,99.99
2018-09-25T00:59:07.053Z,99.99
2018-09-25T01:00:07.029Z,99.99
2018-09-25T01:01:07.004Z,99.99
2018-09-25T01:02:06.977Z,99.99
2018-09-25T01:03:06.952Z,99.99
2018-09-25T01:04:06.929Z,99.99
2018-09-25T01:05:06.904Z,99.99
2018-09-25T01:06:06.877Z,99.99
2018-09-25T01:07:06.853Z,99.99
2018-09-25T01:08:06.829Z,99.99
2018-09-25T01:09:06.803Z,99.99
2018-09-25T01:10:06.779Z,99.99
2018-09-25T01:11:06.753Z,99.99
2018-09-25T01:12:06.728Z,99.99
2018-09-25T01:13:06.704Z,99.99
2018-09-25T01:14:06.679Z,99.99
2018-09-25T01:15:06.654Z,99.99
2018-09-25T01:16:06.630Z,99.99
2018-09-25T01:17:06.605Z,99.99
2018-09-25T01:18:06.579Z,99.99
2018-09-25T01:19:06.618Z,99.99
2018-09-25T01:20:06.531Z,99.99
2018-09-25T01:21:06.504Z,99.99
2018-09-25T01:22:06.478Z,99.99
2018-09-25T01:23:06.454Z,99.99
2018-09-25T01:24:07.931Z,99.99
2018-09-25T01:25:06.404Z,99.99
2018-09-25T01:26:06.378Z,99.99
2018-09-25T01:27:06.353Z,99.99
2018-09-25T01:28:06.329Z,99.99
2018-09-25T01:29:06.303Z,99.99
2018-09-25T01:30:07.028Z,99.99
2018-09-25T01:31:06.253Z,99.99
2018-09-25T01:32:06.228Z,99.99
2018-09-25T01:33:06.207Z,99.99
2018-09-25T01:34:06.177Z,99.99
2018-09-25T01:35:06.152Z,99.99
2018-09-25T01:36:06.127Z,99.99
2018-09-25T01:37:06.105Z,99.99
2018-09-25T01:38:06.076Z,99.99
2018-09-25T01:39:06.050Z,99.99
2018-09-25T01:40:06.028Z,99.99
2018-09-25T01:41:06.003Z,99.99
2018-09-25T01:42:05.976Z,99.99
2018-09-25T01:43:05.950Z,99.99
2018-09-25T01:44:05.926Z,99.99
2018-09-25T01:45:05.902Z,99.99
2018-09-25T01:46:06.624Z,99.99
2018-09-25T01:47:05.849Z,99.99
2018-09-25T01:48:05.824Z,99.99
2018-09-25T01:49:05.800Z,99.99
2018-09-25T01:50:05.773Z,99.99
2018-09-25T01:51:05.751Z,99.99
2018-09-25T01:52:05.724Z,99.99
2018-09-25T01:53:05.700Z,99.99
2018-09-25T01:54:05.673Z,99.99
2018-09-25T01:55:05.649Z,99.99
2018-09-25T01:56:05.623Z,99.99
2018-09-25T01:57:05.598Z,99.99
2018-09-25T01:58:05.572Z,99.99
2018-09-25T01:59:05.548Z,99.99
2018-09-25T02:00:05.523Z,99.99
2018-09-25T02:01:05.499Z,99.99
2018-09-25T02:02:05.470Z,99.99
2018-09-25T02:03:05.445Z,99.99
2018-09-25T02:04:05.420Z,99.99
2018-09-25T02:05:05.395Z,99.99
2018-09-25T02:06:05.369Z,99.99
2018-09-25T02:07:05.343Z,99.99
2018-09-25T02:08:05.318Z,99.99
2018-09-25T02:09:05.293Z,99.99
2018-09-25T02:10:05.267Z,99.99
2018-09-25T02:11:05.241Z,99.99
2018-09-25T02:12:05.217Z,99.99
2018-09-25T02:13:05.192Z,99.99
2018-09-25T02:14:05.165Z,99.99
2018-09-25T02:15:05.141Z,99.99
2018-09-25T02:16:05.116Z,99.99
2018-09-25T02:17:05.091Z,99.99
2018-09-25T02:18:05.063Z,99.99
2018-09-25T02:19:05.039Z,99.99
2018-09-25T02:20:05.013Z,99.99
2018-09-25T02:21:04.988Z,99.99
2018-09-25T02:22:04.962Z,99.99
2018-09-25T02:23:05.687Z,99.99
2018-09-25T02:24:04.911Z,99.99
2018-09-25T02:25:04.886Z,99.99
2018-09-25T02:26:04.859Z,99.99
2018-09-25T02:27:04.834Z,99.99
2018-09-25T02:28:04.810Z,99.99
2018-09-25T02:29:04.784Z,99.99
2018-09-25T02:30:04.758Z,99.99
2018-09-25T02:31:04.744Z,99.99
2018-09-25T02:32:04.708Z,99.99
2018-09-25T02:33:04.682Z,99.99
2018-09-25T02:34:04.657Z,99.99
2018-09-25T02:35:04.630Z,99.99
2018-09-25T02:36:04.607Z,99.99
2018-09-25T02:37:04.581Z,99.99
2018-09-25T02:38:04.556Z,99.99
2018-09-25T02:39:04.528Z,99.99
2018-09-25T02:40:04.503Z,99.99
2018-09-25T02:41:04.479Z,99.99
2018-09-25T02:42:04.452Z,99.99
2018-09-25T02:43:04.430Z,99.99
2018-09-25T02:44:05.903Z,99.99
2018-09-25T02:45:04.380Z,99.99
2018-09-25T02:46:04.350Z,99.99
2018-09-25T02:47:04.324Z,99.99
2018-09-25T02:48:04.300Z,99.99
2018-09-25T02:49:04.274Z,99.99
2018-09-25T02:50:04.249Z,99.99
2018-09-25T02:51:04.230Z,99.99
2018-09-25T02:52:04.199Z,99.99
2018-09-25T02:53:04.174Z,99.99
2018-09-25T02:54:04.148Z,99.99
2018-09-25T02:55:04.121Z,99.99
2018-09-25T02:56:04.097Z,99.99
2018-09-25T02:57:04.072Z,99.99
2018-09-25T02:58:04.044Z,99.99
2018-09-25T02:59:04.019Z,99.99
2018-09-25T03:00:03.994Z,99.99
2018-09-25T03:01:03.970Z,99.99
2018-09-25T03:02:03.944Z,99.99
2018-09-25T03:03:03.917Z,99.99
2018-09-25T03:04:03.897Z,99.99
2018-09-25T03:05:03.870Z,99.99
2018-09-25T03:06:04.591Z,99.99
2018-09-25T03:07:03.815Z,99.99
2018-09-25T03:08:03.790Z,99.99
2018-09-25T03:09:03.764Z,99.99
2018-09-25T03:10:03.740Z,99.99
2018-09-25T03:11:03.712Z,99.99
2018-09-25T03:12:03.687Z,99.99
2018-09-25T03:13:03.662Z,99.99
2018-09-25T03:14:03.636Z,99.99
2018-09-25T03:15:03.617Z,99.99
2018-09-25T03:16:03.589Z,99.99
2018-09-25T03:17:03.565Z,99.99
2018-09-25T03:18:03.538Z,99.99
2018-09-25T03:19:03.508Z,99.99
2018-09-25T03:20:03.483Z,99.99
2018-09-25T03:21:03.457Z,99.99
2018-09-25T03:22:03.433Z,99.99
2018-09-25T03:23:03.405Z,99.99
2018-09-25T03:24:03.448Z,99.99
2018-09-25T03:25:03.361Z,99.99
2018-09-25T03:26:03.333Z,99.99
2018-09-25T03:27:03.304Z,99.99
2018-09-25T03:28:03.277Z,99.99
2018-09-25T03:29:03.254Z,99.99
2018-09-25T03:30:03.227Z,99.99
2018-09-25T03:31:03.202Z,99.99
2018-09-25T03:32:03.175Z,99.99
2018-09-25T03:33:03.149Z,99.99
2018-09-25T03:34:03.123Z,99.99
2018-09-25T03:35:03.099Z,99.99
2018-09-25T03:36:03.074Z,99.99
2018-09-25T03:37:03.047Z,99.99
2018-09-25T03:38:03.021Z,99.99
2018-09-25T03:39:02.997Z,99.99
2018-09-25T03:40:02.973Z,99.99
2018-09-25T03:41:02.945Z,99.99
2018-09-25T03:42:02.920Z,99.99
2018-09-25T03:43:02.894Z,99.99
2018-09-25T03:44:02.869Z,99.99
2018-09-25T03:45:02.843Z,99.99
2018-09-25T03:46:02.815Z,99.99
2018-09-25T03:47:02.791Z,99.99
2018-09-25T03:48:02.767Z,99.99
2018-09-25T03:49:02.740Z,99.99
2018-09-25T03:50:02.713Z,99.99
2018-09-25T03:51:02.689Z,99.99
2018-09-25T03:52:02.662Z,99.99
2018-09-25T03:53:02.637Z,99.99
2018-09-25T03:54:02.649Z,99.99
2018-09-25T03:55:02.587Z,99.99
2018-09-25T03:56:02.561Z,99.99
2018-09-25T03:57:02.539Z,99.99
2018-09-25T03:58:02.510Z,99.99
2018-09-25T03:59:02.485Z,99.99
2018-09-25T04:00:02.458Z,99.99
2018-09-25T04:01:02.432Z,99.99
2018-09-25T04:02:02.406Z,99.99
2018-09-25T04:03:02.381Z,99.99
2018-09-25T04:04:02.357Z,99.99
2018-09-25T04:05:02.335Z,99.99
2018-09-25T04:06:02.317Z,99.99
2018-09-25T04:07:02.279Z,99.99
2018-09-25T04:08:02.255Z,99.99
2018-09-25T04:09:02.228Z,99.99
2018-09-25T04:10:02.202Z,99.99
2018-09-25T04:11:02.176Z,99.99
2018-09-25T04:12:02.152Z,99.99
2018-09-25T04:13:02.127Z,99.99
2018-09-25T04:14:02.100Z,99.99
2018-09-25T04:15:02.073Z,99.99
2018-09-25T04:16:02.049Z,99.99
2018-09-25T04:17:02.023Z,99.99
2018-09-25T04:18:02.006Z,99.99
2018-09-25T04:19:01.972Z,99.99
2018-09-25T04:20:02.696Z,99.99
2018-09-25T04:21:01.921Z,99.99
2018-09-25T04:22:01.901Z,99.99
2018-09-25T04:23:01.870Z,99.99
2018-09-25T04:24:01.843Z,99.99
2018-09-25T04:25:01.826Z,99.99
2018-09-25T04:26:01.791Z,99.99
2018-09-25T04:27:01.766Z,99.99
2018-09-25T04:28:01.740Z,99.99
2018-09-25T04:29:01.717Z,99.99
2018-09-25T04:30:01.692Z,99.99
2018-09-25T04:31:01.663Z,99.99
2018-09-25T04:32:01.637Z,99.99
2018-09-25T04:33:01.612Z,99.99
2018-09-25T04:34:01.587Z,99.99
2018-09-25T04:35:01.561Z,99.99
2018-09-25T04:36:01.536Z,99.99
2018-09-25T04:37:01.527Z,99.99
2018-09-25T04:38:01.482Z,99.99
2018-09-25T04:39:01.457Z,99.99
2018-09-25T04:40:01.442Z,99.99
2018-09-25T04:41:01.406Z,99.99
2018-09-25T04:42:01.380Z,99.99
2018-09-25T04:43:01.359Z,99.99
2018-09-25T04:44:01.328Z,99.99
2018-09-25T04:45:01.308Z,99.99
2018-09-25T04:46:01.276Z,99.99
2018-09-25T04:47:01.286Z,99.99
2018-09-25T04:48:01.226Z,99.99
2018-09-25T04:49:01.200Z,99.99
2018-09-25T04:50:01.172Z,99.99
2018-09-25T04:51:01.147Z,99.99
2018-09-25T04:52:01.124Z,99.99
2018-09-25T04:53:01.096Z,99.99
2018-09-25T04:54:01.069Z,99.99
2018-09-25T04:55:01.043Z,99.99
2018-09-25T04:56:01.018Z,99.99
2018-09-25T04:57:00.997Z,99.99
2018-09-25T04:58:00.987Z,99.99
2018-09-25T04:59:00.940Z,99.99
2018-09-25T05:00:00.916Z,99.99
2018-09-25T05:01:00.889Z,99.99
2018-09-25T05:02:00.862Z,99.99
2018-09-25T05:03:00.838Z,99.99
2018-09-25T05:04:00.812Z,99.99
2018-09-25T05:05:00.787Z,99.99
2018-09-25T05:06:00.759Z,99.99
2018-09-25T05:07:00.734Z,99.99
2018-09-25T05:08:00.710Z,99.99
2018-09-25T05:09:00.682Z,99.99
2018-09-25T05:10:00.657Z,99.99
2018-09-25T05:11:00.630Z,99.99
2018-09-25T05:12:00.610Z,99.99
2018-09-25T05:13:00.582Z,99.99
2018-09-25T05:14:00.553Z,99.99
2018-09-25T05:15:00.527Z,99.99
2018-09-25T05:16:00.503Z,99.99
2018-09-25T05:17:00.476Z,99.99
2018-09-25T05:18:00.455Z,99.99
2018-09-25T05:19:00.424Z,99.99
2018-09-25T05:20:00.399Z,99.99
2018-09-25T05:21:00.373Z,99.99
2018-09-25T05:22:00.352Z,99.99
2018-09-25T05:23:00.321Z,99.99
2018-09-25T05:24:00.297Z,99.99
2018-09-25T05:25:00.313Z,99.99
2018-09-25T05:26:00.244Z,99.99
2018-09-25T05:27:00.219Z,99.99
2018-09-25T05:28:00.193Z,99.99
2018-09-25T05:29:00.168Z,99.99
2018-09-25T05:30:00.142Z,99.99
2018-09-25T05:31:00.116Z,99.99
2018-09-25T05:32:00.091Z,99.99
2018-09-25T05:33:00.066Z,99.99
2018-09-25T05:34:00.039Z,99.99
2018-09-25T05:35:00.013Z,99.99
2018-09-25T05:35:59.988Z,99.99
2018-09-25T05:36:59.962Z,99.99
2018-09-25T05:37:59.936Z,99.99
2018-09-25T05:38:59.913Z,99.99
2018-09-25T05:39:59.886Z,99.99
2018-09-25T05:40:59.900Z,99.68
2018-09-25T05:41:59.839Z,99.49
2018-09-25T05:42:59.808Z,98.73
2018-09-25T05:43:59.782Z,99.02
2018-09-25T05:44:59.767Z,99.40
2018-09-25T05:45:59.734Z,99.40
2018-09-25T05:46:59.718Z,99.40
2018-09-25T05:47:59.739Z,99.11
2018-09-25T05:48:59.834Z,99.11
2018-09-25T05:49:59.631Z,99.02
2018-09-25T05:51:03.359Z,99.11
2018-09-25T05:51:59.580Z,99.11
2018-09-25T05:52:59.555Z,99.40
2018-09-25T05:53:59.528Z,98.35
2018-09-25T05:54:59.502Z,97.12
2018-09-25T05:55:59.478Z,97.22
2018-09-25T05:56:59.453Z,97.41
2018-09-25T05:57:59.426Z,97.97
2018-09-25T05:58:59.402Z,99.40
2018-09-25T05:59:59.377Z,99.40
2018-09-25T06:00:59.467Z,99.58
2018-09-25T06:01:59.326Z,99.99
2018-09-25T06:02:59.302Z,99.99
2018-09-25T06:03:59.275Z,99.99
2018-09-25T06:04:59.250Z,99.99
2018-09-25T06:05:59.227Z,99.99
2018-09-25T06:06:59.203Z,99.99
2018-09-25T06:07:59.187Z,99.99
2018-09-25T06:08:59.150Z,99.99
2018-09-25T06:09:59.122Z,99.99
2018-09-25T06:10:59.097Z,99.99
2018-09-25T06:11:59.072Z,99.99
2018-09-25T06:12:59.049Z,99.99
2018-09-25T06:13:59.021Z,99.99
2018-09-25T06:14:58.997Z,99.99
2018-09-25T06:15:58.972Z,99.99
2018-09-25T06:16:58.946Z,99.99
2018-09-25T06:18:04.925Z,99.99
2018-09-25T06:18:58.897Z,99.99
2018-09-25T06:19:58.870Z,99.99
2018-09-25T06:20:58.846Z,99.99
2018-09-25T06:21:58.820Z,99.99
2018-09-25T06:22:58.872Z,99.99
2018-09-25T06:24:02.523Z,99.99
2018-09-25T06:24:58.744Z,99.99
2018-09-25T06:25:58.720Z,99.99
2018-09-25T06:26:58.694Z,99.99
2018-09-25T06:27:58.671Z,99.99
2018-09-25T06:28:58.644Z,99.99
2018-09-25T06:29:58.619Z,99.99
2018-09-25T06:30:58.594Z,99.99
2018-09-25T06:31:58.569Z,99.99
2018-09-25T06:32:58.544Z,99.99
2018-09-25T06:33:58.519Z,99.99
2018-09-25T06:34:58.592Z,99.99
2018-09-25T06:35:58.468Z,99.99
2018-09-25T06:36:58.453Z,99.99
2018-09-25T06:37:58.418Z,99.99
2018-09-25T06:38:58.395Z,99.99
2018-09-25T06:39:58.371Z,99.99
2018-09-25T06:40:58.468Z,99.99
2018-09-25T06:41:58.319Z,99.99
2018-09-25T06:42:58.293Z,99.99
2018-09-25T06:43:58.269Z,99.99
2018-09-25T06:44:58.244Z,99.99
2018-09-25T06:45:58.218Z,99.99
2018-09-25T06:46:58.193Z,99.99
2018-09-25T06:47:58.169Z,99.99
2018-09-25T06:48:58.145Z,99.99
2018-09-25T06:49:58.120Z,99.99
2018-09-25T06:50:58.096Z,99.99
2018-09-25T06:51:58.071Z,99.99
2018-09-25T06:52:58.052Z,99.99
2018-09-25T06:53:58.021Z,99.99
2018-09-25T06:54:58.094Z,99.99
2018-09-25T06:55:57.972Z,99.99
2018-09-25T06:56:57.946Z,99.99
2018-09-25T06:57:57.922Z,99.99
2018-09-25T06:58:57.896Z,99.99
2018-09-25T06:59:57.871Z,99.99
2018-09-25T07:00:57.865Z,99.99
2018-09-25T07:01:57.824Z,99.99
2018-09-25T07:02:57.798Z,99.99
2018-09-25T07:03:57.772Z,99.99
2018-09-25T07:04:57.748Z,99.99
2018-09-25T07:05:57.723Z,99.99
2018-09-25T07:06:57.698Z,99.99
2018-09-25T07:07:57.674Z,99.99
2018-09-25T07:08:57.651Z,99.99
2018-09-25T07:09:57.727Z,99.99
2018-09-25T07:10:57.601Z,99.99
2018-09-25T07:11:57.576Z,99.99
2018-09-25T07:12:57.552Z,99.99
2018-09-25T07:13:57.527Z,99.99
2018-09-25T07:14:57.507Z,99.99
2018-09-25T07:15:57.479Z,99.99
2018-09-25T07:16:57.454Z,99.99
2018-09-25T07:17:57.457Z,99.99
2018-09-25T07:18:57.405Z,99.99
2018-09-25T07:19:57.381Z,99.99
2018-09-25T07:20:57.357Z,99.99
2018-09-25T07:21:57.331Z,99.99
2018-09-25T07:22:57.306Z,99.99
2018-09-25T07:23:57.282Z,99.99
2018-09-25T07:24:57.302Z,99.99
2018-09-25T07:25:57.232Z,99.99
2018-09-25T07:26:57.208Z,99.99
2018-09-25T07:27:57.185Z,99.99
2018-09-25T07:28:57.162Z,99.99
2018-09-25T07:29:57.137Z,99.99
2018-09-25T07:30:57.117Z,99.99
2018-09-25T07:31:57.089Z,99.99
2018-09-25T07:32:57.814Z,99.99
2018-09-25T07:33:57.040Z,99.99
2018-09-25T07:34:57.017Z,99.99
2018-09-25T07:35:56.991Z,99.99
2018-09-25T07:36:56.967Z,99.99
2018-09-25T07:37:56.941Z,99.99
2018-09-25T07:38:56.919Z,99.99
2018-09-25T07:39:56.894Z,99.99
2018-09-25T07:40:56.870Z,99.99
2018-09-25T07:41:56.845Z,99.99
2018-09-25T07:42:56.822Z,99.99
2018-09-25T07:43:56.797Z,99.99
2018-09-25T07:44:56.773Z,99.99
2018-09-25T07:45:56.748Z,99.99
2018-09-25T07:46:56.724Z,99.99
2018-09-25T07:47:56.700Z,99.99
2018-09-25T07:48:56.677Z,99.99
2018-09-25T07:49:56.656Z,99.99
2018-09-25T07:50:56.628Z,99.99
2018-09-25T07:51:56.605Z,99.99
2018-09-25T07:52:56.582Z,99.99
2018-09-25T07:53:56.555Z,99.99
2018-09-25T07:54:56.532Z,99.99
2018-09-25T07:55:56.514Z,99.99
2018-09-25T07:56:56.484Z,99.99
2018-09-25T07:57:56.459Z,99.99
2018-09-25T07:58:56.436Z,99.99
2018-09-25T07:59:56.412Z,99.99
2018-09-25T08:00:56.388Z,99.99
2018-09-25T08:01:56.365Z,99.99
2018-09-25T08:02:56.343Z,99.99
2018-09-25T08:03:56.318Z,99.99
2018-09-25T08:04:56.293Z,99.99
2018-09-25T08:05:56.269Z,99.99
2018-09-25T08:06:56.245Z,99.99
2018-09-25T08:07:56.222Z,99.99
2018-09-25T08:08:56.215Z,99.99
2018-09-25T08:09:56.175Z,99.99
2018-09-25T08:10:56.150Z,99.99
2018-09-25T08:11:56.127Z,99.99
2018-09-25T08:12:56.104Z,99.99
2018-09-25T08:13:56.078Z,99.99
2018-09-25T08:14:56.055Z,99.99
2018-09-25T08:15:56.031Z,99.99
2018-09-25T08:16:56.009Z,99.99
2018-09-25T08:17:55.983Z,99.99
2018-09-25T08:18:55.959Z,99.99
2018-09-25T08:19:55.937Z,99.99
2018-09-25T08:20:56.665Z,99.99
2018-09-25T08:21:55.889Z,99.99
2018-09-25T08:22:55.865Z,99.99
2018-09-25T08:23:55.879Z,99.99
2018-09-25T08:24:55.818Z,99.99
2018-09-25T08:25:55.797Z,99.99
2018-09-25T08:26:55.776Z,99.99
2018-09-25T08:27:55.748Z,99.99
2018-09-25T08:28:55.727Z,99.99
2018-09-25T08:29:55.703Z,99.99
2018-09-25T08:30:55.679Z,99.99
2018-09-25T08:31:55.655Z,99.99
2018-09-25T08:32:55.631Z,99.99
2018-09-25T08:33:55.606Z,99.99
2018-09-25T08:34:55.600Z,99.99
2018-09-25T08:35:55.560Z,99.99
2018-09-25T08:36:55.536Z,99.60
2018-09-25T08:37:55.512Z,99.70
2018-09-25T08:38:55.515Z,99.32
2018-09-25T08:39:55.465Z,99.99
2018-09-25T08:40:55.442Z,99.99
2018-09-25T08:41:55.417Z,99.51
2018-09-25T08:42:55.395Z,99.60
2018-09-25T08:43:55.373Z,99.70
2018-09-25T08:44:55.348Z,99.70
2018-09-25T08:45:55.416Z,99.99
2018-09-25T08:46:56.054Z,99.99
2018-09-25T08:47:55.277Z,99.04
2018-09-25T08:48:55.277Z,99.04
2018-09-25T08:49:55.230Z,99.32
2018-09-25T08:50:55.207Z,99.22
2018-09-25T08:51:55.187Z,99.04
2018-09-25T08:52:55.160Z,99.60
2018-09-25T08:53:55.137Z,99.46
2018-09-25T08:54:55.115Z,98.85
2018-09-25T08:55:55.092Z,98.51
2018-09-25T08:56:55.067Z,99.56
2018-09-25T08:57:55.044Z,97.56
2018-09-25T08:58:55.021Z,97.94
2018-09-25T08:59:54.999Z,97.94
2018-09-25T09:00:55.040Z,97.37
2018-09-25T09:01:54.956Z,98.03
2018-09-25T09:02:54.929Z,98.13
2018-09-25T09:03:54.908Z,99.18
2018-09-25T09:04:54.882Z,97.89
2018-09-25T09:05:54.858Z,96.94
2018-09-25T09:06:54.836Z,98.27
2018-09-25T09:07:54.812Z,97.32
2018-09-25T09:08:54.791Z,96.84
2018-09-25T09:09:54.766Z,95.51
2018-09-25T09:10:54.742Z,95.22
2018-09-25T09:11:54.724Z,95.89
2018-09-25T09:12:54.699Z,95.79
2018-09-25T09:13:54.673Z,95.32
2018-09-25T09:14:54.651Z,95.51
2018-09-25T09:15:54.628Z,95.41
2018-09-25T09:16:54.607Z,94.65
2018-09-25T09:17:54.582Z,95.12
2018-09-25T09:18:54.559Z,96.66
2018-09-25T09:19:54.557Z,95.70
2018-09-25T09:20:54.516Z,94.93
2018-09-25T09:21:54.492Z,95.32
2018-09-25T09:22:54.470Z,94.56
2018-09-25T09:23:54.447Z,93.70
2018-09-25T09:24:54.424Z,94.46
2018-09-25T09:25:54.401Z,93.88
2018-09-25T09:26:54.377Z,93.51
2018-09-25T09:27:54.355Z,92.55
2018-09-25T09:28:54.340Z,91.21
2018-09-25T09:29:55.810Z,91.21
2018-09-25T09:30:54.287Z,91.50
2018-09-25T09:31:54.263Z,92.26
2018-09-25T09:32:54.241Z,91.98
2018-09-25T09:33:54.217Z,92.74
2018-09-25T09:34:54.195Z,92.26
2018-09-25T09:35:57.174Z,92.65
2018-09-25T09:36:54.149Z,93.02
2018-09-25T09:37:54.126Z,92.74
2018-09-25T09:38:54.103Z,92.07
2018-09-25T09:39:54.081Z,91.60
2018-09-25T09:40:54.079Z,92.26
2018-09-25T09:41:55.170Z,92.36
2018-09-25T09:42:54.012Z,92.93
2018-09-25T09:43:53.991Z,92.74
2018-09-25T09:44:53.966Z,93.51
2018-09-25T09:45:53.942Z,93.22
2018-09-25T09:46:53.920Z,92.93
2018-09-25T09:47:53.900Z,93.07
2018-09-25T09:48:53.879Z,92.69
2018-09-25T09:49:53.851Z,92.50
2018-09-25T09:50:53.834Z,91.36
2018-09-25T09:51:53.811Z,91.41
2018-09-25T09:52:53.783Z,91.55
2018-09-25T09:53:53.760Z,90.69
2018-09-25T09:54:53.737Z,90.97
2018-09-25T09:55:53.714Z,92.12
2018-09-25T09:56:53.694Z,92.02
2018-09-25T09:57:53.669Z,93.36
2018-09-25T09:58:53.647Z,91.64
2018-09-25T09:59:53.625Z,91.74
2018-09-25T10:00:53.601Z,92.21
2018-09-25T10:01:53.578Z,91.45
2018-09-25T10:02:53.556Z,89.92
2018-09-25T10:03:53.533Z,89.92
2018-09-25T10:04:53.511Z,88.59
2018-09-25T10:05:53.488Z,88.78
2018-09-25T10:06:53.555Z,90.11
2018-09-25T10:07:53.443Z,89.16
2018-09-25T10:08:53.421Z,89.64
2018-09-25T10:09:53.399Z,88.78
2018-09-25T10:10:53.375Z,88.68
2018-09-25T10:11:53.353Z,88.59
2018-09-25T10:12:53.332Z,88.87
2018-09-25T10:13:53.308Z,88.78
2018-09-25T10:14:53.306Z,88.11
2018-09-25T10:15:53.263Z,88.20
2018-09-25T10:16:53.261Z,87.44
2018-09-25T10:17:53.238Z,88.34
2018-09-25T10:18:53.254Z,88.63
2018-09-25T10:19:53.194Z,88.06
2018-09-25T10:20:53.171Z,88.54
2018-09-25T10:21:53.147Z,87.63
2018-09-25T10:22:53.125Z,86.49
2018-09-25T10:23:53.103Z,87.15
2018-09-25T10:24:53.081Z,87.87
2018-09-25T10:25:53.057Z,88.01
2018-09-25T10:26:53.038Z,88.34
2018-09-25T10:27:53.013Z,87.48
2018-09-25T10:28:52.991Z,87.68
2018-09-25T10:29:52.967Z,88.44
2018-09-25T10:30:52.945Z,87.20
2018-09-25T10:31:52.923Z,87.68
2018-09-25T10:32:52.901Z,86.15
2018-09-25T10:33:52.926Z,87.01
2018-09-25T10:34:52.857Z,86.91
2018-09-25T10:35:52.834Z,86.34
2018-09-25T10:36:52.811Z,87.58
2018-09-25T10:37:52.788Z,86.53
2018-09-25T10:38:52.766Z,87.39
2018-09-25T10:39:52.743Z,86.53
2018-09-25T10:40:52.739Z,86.91
2018-09-25T10:41:52.699Z,86.82
2018-09-25T10:42:52.680Z,85.29
2018-09-25T10:43:52.656Z,85.29
2018-09-25T10:44:52.632Z,85.58
2018-09-25T10:45:52.609Z,85.96
2018-09-25T10:46:52.589Z,87.01
2018-09-25T10:47:52.564Z,87.01
2018-09-25T10:48:52.543Z,87.62
2018-09-25T10:49:52.581Z,88.96
2018-09-25T10:50:52.499Z,89.06
2018-09-25T10:51:52.478Z,89.44
2018-09-25T10:52:52.454Z,88.77
2018-09-25T10:53:52.431Z,88.20
2018-09-25T10:54:52.410Z,86.00
2018-09-25T10:55:52.496Z,86.10
2018-09-25T10:56:52.365Z,85.81
2018-09-25T10:57:52.342Z,85.24
2018-09-25T10:58:52.319Z,85.42
2018-09-25T10:59:52.298Z,84.32
2018-09-25T11:00:55.278Z,84.56
2018-09-25T11:01:52.253Z,84.61
2018-09-25T11:02:52.306Z,85.85
2018-09-25T11:03:52.209Z,87.66
2018-09-25T11:04:52.188Z,87.19
2018-09-25T11:05:52.165Z,87.09
2018-09-25T11:06:52.894Z,87.48
2018-09-25T11:07:52.121Z,87.57
2018-09-25T11:08:52.106Z,87.29
2018-09-25T11:09:52.079Z,87.29
2018-09-25T11:10:52.055Z,86.04
2018-09-25T11:11:52.033Z,84.61
2018-09-25T11:12:52.013Z,84.03
2018-09-25T11:13:51.990Z,84.80
2018-09-25T11:14:51.968Z,86.90
2018-09-25T11:15:51.947Z,85.94
2018-09-25T11:16:51.925Z,85.38
2018-09-25T11:17:51.905Z,84.03
2018-09-25T11:18:51.880Z,82.60
2018-09-25T11:19:51.859Z,83.17
2018-09-25T11:20:51.841Z,83.46
2018-09-25T11:21:51.814Z,83.46
2018-09-25T11:22:51.793Z,80.40
2018-09-25T11:23:51.771Z,81.93
2018-09-25T11:24:51.750Z,81.93
2018-09-25T11:25:51.728Z,82.31
2018-09-25T11:26:51.705Z,82.12
2018-09-25T11:27:51.683Z,81.65
2018-09-25T11:28:51.662Z,80.59
2018-09-25T11:29:51.639Z,81.84
2018-09-25T11:30:51.618Z,82.31
2018-09-25T11:31:51.596Z,83.37
2018-09-25T11:32:51.575Z,84.23
2018-09-25T11:33:54.555Z,83.84
2018-09-25T11:34:51.531Z,83.08
2018-09-25T11:35:51.512Z,82.60
2018-09-25T11:36:51.487Z,81.84
2018-09-25T11:37:51.465Z,82.22
2018-09-25T11:38:51.443Z,82.51
2018-09-25T11:39:51.425Z,83.31
2018-09-25T11:40:51.413Z,83.89
2018-09-25T11:41:51.378Z,83.89
2018-09-25T11:42:51.357Z,80.92
2018-09-25T11:43:51.339Z,79.00
2018-09-25T11:44:51.314Z,78.14
2018-09-25T11:45:51.321Z,76.90
2018-09-25T11:46:51.430Z,77.76
2018-09-25T11:47:51.251Z,77.19
2018-09-25T11:48:51.227Z,77.19
2018-09-25T11:49:51.233Z,76.81
2018-09-25T11:50:51.183Z,76.90
2018-09-25T11:51:51.162Z,77.28
2018-09-25T11:52:51.153Z,77.00
2018-09-25T11:53:51.119Z,75.95
2018-09-25T11:54:51.096Z,75.95
2018-09-25T11:55:51.075Z,76.62
2018-09-25T11:56:51.054Z,76.90
2018-09-25T11:57:51.031Z,77.57
2018-09-25T11:58:51.010Z,78.05
2018-09-25T11:59:50.989Z,76.90
2018-09-25T12:00:50.967Z,76.04
2018-09-25T12:01:50.945Z,77.00
2018-09-25T12:02:50.924Z,78.34
2018-09-25T12:03:50.903Z,76.81
2018-09-25T12:04:50.882Z,76.65
2018-09-25T12:05:50.861Z,76.08
2018-09-25T12:06:50.838Z,77.04
2018-09-25T12:07:50.819Z,76.84
2018-09-25T12:08:50.795Z,77.13
2018-09-25T12:09:50.772Z,78.28
2018-09-25T12:10:50.758Z,80.29
2018-09-25T12:11:50.729Z,80.19
2018-09-25T12:12:50.708Z,79.91
2018-09-25T12:13:50.748Z,80.96
2018-09-25T12:14:50.665Z,79.91
2018-09-25T12:15:50.645Z,80.48
2018-09-25T12:16:50.623Z,81.82
2018-09-25T12:17:50.601Z,84.22
2018-09-25T12:18:50.581Z,84.98
2018-09-25T12:19:50.565Z,84.12
2018-09-25T12:20:50.538Z,84.22
2018-09-25T12:21:50.516Z,82.97
2018-09-25T12:22:50.494Z,83.73
2018-09-25T12:23:50.473Z,84.50
2018-09-25T12:24:50.453Z,83.16
2018-09-25T12:25:50.430Z,82.11
2018-09-25T12:26:50.415Z,81.73
2018-09-25T12:27:54.895Z,81.44
2018-09-25T12:28:50.370Z,81.05
2018-09-25T12:29:50.348Z,80.77
2018-09-25T12:30:50.324Z,81.73
2018-09-25T12:31:50.303Z,80.19
2018-09-25T12:32:50.298Z,81.34
2018-09-25T12:33:50.266Z,82.01
2018-09-25T12:34:50.239Z,81.92
2018-09-25T12:35:50.218Z,81.63
2018-09-25T12:36:50.197Z,80.96
2018-09-25T12:37:50.175Z,80.38
2018-09-25T12:38:50.155Z,79.43
2018-09-25T12:39:50.133Z,80.00
2018-09-25T12:40:50.154Z,80.48
2018-09-25T12:41:50.093Z,79.43
2018-09-25T12:42:50.069Z,79.14
2018-09-25T12:43:50.048Z,78.47
2018-09-25T12:44:50.031Z,78.95
2018-09-25T12:45:50.005Z,78.86
2018-09-25T12:46:49.984Z,79.43
2018-09-25T12:47:49.964Z,79.33
2018-09-25T12:48:49.941Z,79.24
2018-09-25T12:49:49.920Z,77.42
2018-09-25T12:50:49.899Z,77.04
2018-09-25T12:51:49.878Z,77.23